Time;durP1;ratioP1;P1;durP2;ratioP2;P2;SDS_P1;SDS_P2;PMS_P1;PMS_P2;Temp;Humidity;BMP_temperature;BMP_pressure;BME280_temperature;BME280_humidity;BME280_pressure;Samples;Min_cycle;Max_cycle;Signal;HPM_P1;HPM_P2
2023/06/20 00:01:14;;;;;;;5.50;3.35;;;;;;;15.28;100.00;99604.09;4965962;28;20121;-80
2023/06/20 00:03:40;;;;;;;8.98;4.60;;;;;;;15.28;100.00;99600.63;4978786;28;20038;-78
2023/06/20 00:06:05;;;;;;;6.55;2.90;;;;;;;15.26;100.00;99600.81;4973599;28;20087;-79
2023/06/20 00:08:31;;;;;;;4.60;3.03;;;;;;;15.24;100.00;99602.88;4964937;28;20393;-79
2023/06/20 00:10:57;;;;;;;5.93;3.08;;;;;;;15.24;100.00;99605.53;4964412;28;20035;-79
2023/06/20 00:13:23;;;;;;;3.42;3.10;;;;;;;15.19;100.00;99606.13;4970384;28;20084;-79
2023/06/20 00:15:49;;;;;;;5.53;2.97;;;;;;;15.16;100.00;99603.81;4957195;28;20147;-79
2023/06/20 00:18:17;;;;;;;6.13;3.08;;;;;;;15.19;100.00;99613.28;4982561;28;20499;-84
2023/06/20 00:20:46;;;;;;;8.02;4.45;;;;;;;15.19;100.00;99613.28;4981067;28;20038;-83
2023/06/20 00:23:12;;;;;;;7.63;4.20;;;;;;;15.18;100.00;99603.66;4961491;28;20038;-79
2023/06/20 00:25:38;;;;;;;10.35;4.32;;;;;;;15.14;100.00;99605.88;4979831;28;20041;-79
2023/06/20 00:28:03;;;;;;;9.23;4.32;;;;;;;15.13;100.00;99602.38;4951390;28;20046;-80
2023/06/20 00:30:29;;;;;;;6.32;4.03;;;;;;;15.14;100.00;99603.22;4977926;28;20038;-79
2023/06/20 00:32:58;;;;;;;4.70;3.63;;;;;;;15.11;100.00;99603.59;4934851;28;22043;-80
2023/06/20 00:35:25;;;;;;;9.75;4.28;;;;;;;15.07;100.00;99605.00;4951046;28;20034;-80
2023/06/20 00:37:52;;;;;;;7.38;4.28;;;;;;;14.99;100.00;99600.66;4978215;28;20046;-80
2023/06/20 00:40:17;;;;;;;6.93;3.95;;;;;;;14.98;100.00;99599.00;4937360;28;20070;-79
2023/06/20 00:42:43;;;;;;;3.60;3.20;;;;;;;14.94;100.00;99600.44;4983359;28;20076;-79
2023/06/20 00:45:30;;;;;;;6.95;3.00;;;;;;;14.94;100.00;99595.09;4974742;28;20113;-79
2023/06/20 00:47:58;;;;;;;3.72;3.13;;;;;;;14.93;100.00;99601.41;4980987;28;20038;-79
2023/06/20 00:50:27;;;;;;;6.28;2.38;;;;;;;14.90;100.00;99597.31;4958836;28;20349;-78
2023/06/20 00:53:07;;;;;;;2.70;1.40;;;;;;;14.93;100.00;99596.94;4951815;28;20097;-78
2023/06/20 00:55:35;;;;;;;2.97;1.55;;;;;;;14.95;100.00;99599.41;4968135;28;20500;-78
2023/06/20 00:58:02;;;;;;;2.75;1.58;;;;;;;14.91;100.00;99595.50;4956202;28;20038;-83
2023/06/20 01:00:32;;;;;;;71.90;3.40;;;;;;;14.85;100.00;99591.75;4935455;28;20045;-82
2023/06/20 01:03:06;;;;;;;56.92;2.25;;;;;;;14.66;100.00;99596.69;4967394;28;20034;-80
2023/06/20 01:05:34;;;;;;;25.83;1.50;;;;;;;14.52;100.00;99595.78;4948382;28;21014;-80
2023/06/20 01:08:13;;;;;;;1.48;1.38;;;;;;;14.52;100.00;99595.78;4966399;28;20185;-79
2023/06/20 01:10:47;;;;;;;1.88;1.67;;;;;;;14.54;100.00;99600.91;4940840;28;20100;-79
2023/06/20 01:13:32;;;;;;;2.25;1.50;;;;;;;14.60;100.00;99589.50;4971305;28;20035;-79
2023/06/20 01:16:14;;;;;;;2.97;2.45;;;;;;;14.60;100.00;99598.31;4953494;28;20066;-79
2023/06/20 01:18:54;;;;;;;7.28;1.90;;;;;;;14.58;100.00;99587.03;4952703;28;20829;-79
2023/06/20 01:21:30;;;;;;;1.88;1.75;;;;;;;14.57;100.00;99582.69;4966011;28;20105;-79
2023/06/20 01:24:13;;;;;;;3.30;2.53;;;;;;;14.63;100.00;99592.59;4967209;28;20031;-79
2023/06/20 01:26:49;;;;;;;4.47;2.58;;;;;;;14.66;100.00;99590.56;4938334;28;20033;-79
2023/06/20 01:29:22;;;;;;;2.33;2.10;;;;;;;14.62;100.00;99579.50;4949919;28;20039;-78
2023/06/20 01:31:55;;;;;;;6.65;2.53;;;;;;;14.57;100.00;99582.69;4950539;28;20580;-79
2023/06/20 01:34:27;;;;;;;3.95;2.38;;;;;;;14.48;100.00;99590.00;4955575;28;20046;-79
2023/06/20 01:36:59;;;;;;;2.92;2.17;;;;;;;14.50;100.00;99595.13;4971677;28;20134;-78
2023/06/20 01:39:44;;;;;;;5.22;2.30;;;;;;;14.47;100.00;99593.69;4954022;28;20063;-78
2023/06/20 01:42:15;;;;;;;5.22;2.45;;;;;;;14.49;100.00;99596.97;4951255;28;20066;-79
2023/06/20 01:44:42;;;;;;;4.45;2.28;;;;;;;14.46;100.00;99591.22;4954184;28;20030;-79
2023/06/20 01:47:11;;;;;;;10.20;2.97;;;;;;;14.46;100.00;99596.53;4916577;28;20404;-82
2023/06/20 01:49:39;;;;;;;4.85;2.10;;;;;;;14.38;100.00;99600.97;4954890;28;20038;-82
2023/06/20 01:52:06;;;;;;;2.25;1.52;;;;;;;14.34;100.00;99602.38;4975513;28;20109;-80
2023/06/20 01:54:34;;;;;;;3.42;2.50;;;;;;;14.32;100.00;99600.88;4959881;28;20046;-78
2023/06/20 01:57:01;;;;;;;48.35;1.88;;;;;;;14.27;100.00;99606.78;4961427;28;20077;-79
2023/06/20 01:59:28;;;;;;;21.52;1.60;;;;;;;14.21;100.00;99608.38;4960690;28;20041;-79
2023/06/20 02:01:58;;;;;;;47.38;2.42;;;;;;;14.11;100.00;99603.34;4976537;28;20030;-78
2023/06/20 02:04:26;;;;;;;18.27;2.20;;;;;;;13.92;100.00;99591.50;4981009;28;20117;-79
2023/06/20 02:06:53;;;;;;;52.70;3.17;;;;;;;13.74;100.00;99587.41;4975532;28;20079;-78
2023/06/20 02:09:19;;;;;;;4.97;1.90;;;;;;;13.61;100.00;99596.06;4959700;28;20166;-79
2023/06/20 02:11:46;;;;;;;17.55;2.25;;;;;;;13.62;100.00;99594.22;4968739;28;20042;-78
2023/06/20 02:14:13;;;;;;;7.18;2.08;;;;;;;13.67;100.00;99597.16;4973056;28;20026;-83
2023/06/20 02:16:40;;;;;;;3.53;2.22;;;;;;;13.75;100.00;99602.38;4989145;28;20022;-84
2023/06/20 02:19:07;;;;;;;5.32;2.38;;;;;;;13.82;100.00;99609.59;4981335;28;20041;-83
2023/06/20 02:21:37;;;;;;;3.10;2.80;;;;;;;13.91;100.00;99602.31;4973737;28;20555;-83
2023/06/20 02:24:06;;;;;;;3.20;2.90;;;;;;;13.94;100.00;99602.78;4975346;28;20089;-78
2023/06/20 02:26:35;;;;;;;7.95;3.10;;;;;;;13.99;100.00;99595.06;4941946;28;20524;-79
2023/06/20 02:29:07;;;;;;;4.60;3.67;;;;;;;14.06;100.00;99595.16;4959469;28;20037;-79
2023/06/20 02:31:39;;;;;;;8.13;3.53;;;;;;;14.14;100.00;99597.66;4967381;28;20038;-79
2023/06/20 02:34:07;;;;;;;5.60;2.35;;;;;;;14.14;100.00;99599.50;4946230;28;20049;-79
2023/06/20 02:36:35;;;;;;;3.83;2.42;;;;;;;14.03;100.00;99606.13;4979508;28;20084;-79
2023/06/20 02:39:04;;;;;;;5.13;2.30;;;;;;;13.92;100.00;99606.63;4938597;28;20045;-83
2023/06/20 02:41:30;;;;;;;8.52;2.47;;;;;;;13.85;100.00;99611.88;4979101;28;20050;-83
2023/06/20 02:43:56;;;;;;;3.00;2.40;;;;;;;13.80;100.00;99614.25;4958504;28;20038;-79
2023/06/20 02:46:46;;;;;;;2.72;1.77;;;;;;;13.81;100.00;99613.25;4944174;28;20041;-79
2023/06/20 02:49:27;;;;;;;2.20;1.98;;;;;;;13.82;100.00;99614.91;4942603;28;20524;-79
2023/06/20 02:52:13;;;;;;;3.75;1.77;;;;;;;13.80;100.00;99620.38;4971605;28;20072;-79
2023/06/20 02:55:00;;;;;;;2.22;2.03;;;;;;;13.72;100.00;99609.88;4971694;28;20077;-79
2023/06/20 02:57:28;;;;;;;2.63;2.17;;;;;;;13.73;100.00;99611.50;4971432;28;20049;-79
2023/06/20 03:00:10;;;;;;;4.88;1.90;;;;;;;13.75;100.00;99606.84;4970809;28;20034;-78
2023/06/20 03:02:44;;;;;;;5.20;1.70;;;;;;;13.77;100.00;99605.66;4967664;28;20092;-79
2023/06/20 03:05:14;;;;;;;3.65;1.63;;;;;;;13.80;100.00;99614.25;4985347;28;20035;-78
2023/06/20 03:07:41;;;;;;;2.85;1.70;;;;;;;13.77;100.00;99616.28;4960549;28;20034;-78
2023/06/20 03:10:08;;;;;;;2.13;1.85;;;;;;;13.78;100.00;99614.44;4970047;28;20121;-79
2023/06/20 03:12:34;;;;;;;2.90;1.98;;;;;;;13.81;100.00;99619.38;4945416;28;20056;-79
2023/06/20 03:15:00;;;;;;;1.83;1.50;;;;;;;13.82;100.00;99617.56;4939706;28;20125;-79
2023/06/20 03:17:27;;;;;;;5.30;2.08;;;;;;;13.84;100.00;99626.16;4967997;28;20069;-79
2023/06/20 03:19:53;;;;;;;4.25;2.38;;;;;;;13.84;100.00;99620.84;4974557;28;20089;-79
2023/06/20 03:22:22;;;;;;;3.55;2.80;;;;;;;13.83;100.00;99627.16;4974828;28;20083;-79
2023/06/20 03:24:49;;;;;;;3.08;2.42;;;;;;;13.82;100.00;99623.69;4985495;28;20477;-79
2023/06/20 03:27:15;;;;;;;3.13;2.53;;;;;;;13.80;100.00;99631.03;4957503;28;20030;-78
2023/06/20 03:29:42;;;;;;;3.25;2.85;;;;;;;13.76;100.00;99619.13;4964577;28;20122;-79
2023/06/20 03:32:07;;;;;;;2.83;2.20;;;;;;;13.74;100.00;99615.81;4979856;28;20227;-79
2023/06/20 03:34:34;;;;;;;3.35;2.42;;;;;;;13.76;100.00;99616.47;4979671;28;20035;-79
2023/06/20 03:37:01;;;;;;;3.30;2.60;;;;;;;13.79;100.00;99609.97;4959140;28;20081;-83
2023/06/20 03:39:28;;;;;;;4.20;2.10;;;;;;;13.84;100.00;99605.72;4969696;28;20034;-84
2023/06/20 03:41:54;;;;;;;4.70;2.00;;;;;;;13.88;100.00;99608.84;4969685;28;20031;-84
2023/06/20 03:44:21;;;;;;;1.95;1.63;;;;;;;13.85;100.00;99610.03;4958365;28;20041;-83
2023/06/20 03:46:47;;;;;;;2.70;1.92;;;;;;;13.82;100.00;99609.59;4988330;28;20481;-83
2023/06/20 03:49:12;;;;;;;5.07;3.17;;;;;;;13.81;100.00;99607.94;4996144;28;20704;-83
2023/06/20 03:51:39;;;;;;;3.08;2.40;;;;;;;13.75;100.00;99605.03;4974296;28;20038;-82
2023/06/20 03:54:05;;;;;;;2.25;1.30;;;;;;;13.72;100.00;99608.03;4983717;28;20496;-78
2023/06/20 03:56:31;;;;;;;8.10;1.50;;;;;;;13.67;100.00;99599.81;4937443;28;20608;-78
2023/06/20 03:58:57;;;;;;;1.60;1.48;;;;;;;13.68;100.00;99601.44;4952598;28;20030;-79
2023/06/20 04:01:24;;;;;;;3.92;2.08;;;;;;;13.72;100.00;99604.56;4987095;28;20082;-79
2023/06/20 04:03:52;;;;;;;3.50;2.63;;;;;;;13.70;100.00;99607.41;4974593;28;20042;-78
2023/06/20 04:06:18;;;;;;;7.05;3.05;;;;;;;13.69;100.00;99608.41;4980944;28;20025;-79
2023/06/20 04:08:45;;;;;;;5.03;3.15;;;;;;;13.63;100.00;99598.53;4955866;28;20121;-80
2023/06/20 04:11:11;;;;;;;3.85;2.30;;;;;;;13.60;100.00;99596.25;4937983;28;20066;-79
2023/06/20 04:13:37;;;;;;;3.80;2.25;;;;;;;13.44;100.00;99594.59;4955813;28;20030;-79
2023/06/20 04:16:03;;;;;;;5.40;2.00;;;;;;;13.39;100.00;99595.16;4983211;28;20027;-79
2023/06/20 04:18:29;;;;;;;2.55;1.65;;;;;;;13.39;100.00;99605.75;4976036;28;20042;-79
2023/06/20 04:20:56;;;;;;;2.35;1.77;;;;;;;13.40;100.00;99604.75;4961073;28;20052;-78
2023/06/20 04:23:21;;;;;;;11.93;2.00;;;;;;;13.40;100.00;99608.22;4955110;28;20487;-83
2023/06/20 04:25:47;;;;;;;22.38;2.38;;;;;;;13.37;100.00;99607.75;4959100;28;20477;-83
2023/06/20 04:28:17;;;;;;;2.75;1.80;;;;;;;13.40;100.00;99602.91;4971264;28;20038;-80
2023/06/20 04:30:52;;;;;;;9.90;1.90;;;;;;;13.44;100.00;99607.88;4958973;28;20034;-79
2023/06/20 04:33:19;;;;;;;47.78;3.40;;;;;;;13.47;100.00;99603.00;4972478;28;20030;-82
2023/06/20 04:35:45;;;;;;;8.45;3.20;;;;;;;13.54;100.00;99599.66;4970436;28;20039;-83
2023/06/20 04:38:12;;;;;;;29.60;3.28;;;;;;;13.58;100.00;99600.91;4968695;28;20031;-79
2023/06/20 04:40:38;;;;;;;54.67;3.55;;;;;;;13.54;100.00;99607.63;4954093;28;20030;-79
2023/06/20 04:43:04;;;;;;;44.17;3.38;;;;;;;13.49;100.00;99608.94;4970731;28;20038;-79
2023/06/20 04:45:30;;;;;;;24.13;3.00;;;;;;;13.44;100.00;99605.22;4954937;28;20437;-79
2023/06/20 04:47:57;;;;;;;68.22;3.10;;;;;;;13.33;100.00;99588.72;4983228;28;20030;-79
2023/06/20 04:50:23;;;;;;;122.28;4.13;;;;;;;13.21;100.00;99583.06;4940699;28;20374;-78
2023/06/20 04:52:49;;;;;;;46.15;3.13;;;;;;;13.17;100.00;99586.28;4929192;28;20047;-78
2023/06/20 04:55:15;;;;;;;7.28;2.33;;;;;;;13.18;100.00;99598.53;4969239;28;20073;-79
2023/06/20 04:57:42;;;;;;;6.03;2.20;;;;;;;13.24;100.00;99600.44;4952152;28;20063;-79
2023/06/20 05:00:13;;;;;;;7.90;1.90;;;;;;;13.30;100.00;99602.34;4966457;28;20031;-79
2023/06/20 05:02:44;;;;;;;6.95;2.47;;;;;;;13.38;100.00;99601.44;4972109;28;20034;-79
2023/06/20 05:05:10;;;;;;;21.83;2.95;;;;;;;13.44;100.00;99600.69;4956402;28;20405;-78
2023/06/20 05:07:36;;;;;;;41.80;3.67;;;;;;;13.48;100.00;99601.16;4987565;28;20034;-79
2023/06/20 05:10:02;;;;;;;36.22;3.95;;;;;;;13.56;100.00;99594.97;4964763;28;20481;-79
2023/06/20 05:12:28;;;;;;;159.35;5.28;;;;;;;13.56;100.00;99593.13;4963870;28;20027;-79
2023/06/20 05:14:54;;;;;;;40.75;3.55;;;;;;;13.54;100.00;99594.34;4948120;28;20081;-78
2023/06/20 05:17:20;;;;;;;31.35;4.30;;;;;;;13.52;100.00;99592.69;4952492;28;20035;-79
2023/06/20 05:19:46;;;;;;;15.27;3.78;;;;;;;13.48;100.00;99596.69;4962876;28;20043;-79
2023/06/20 05:22:12;;;;;;;14.43;3.60;;;;;;;13.46;100.00;99595.22;4956352;28;20065;-78
2023/06/20 05:24:37;;;;;;;11.35;3.88;;;;;;;13.49;100.00;99590.38;4953494;28;20031;-79
2023/06/20 05:27:03;;;;;;;6.43;3.78;;;;;;;13.58;100.00;99599.09;4966382;28;20046;-79
2023/06/20 05:29:29;;;;;;;19.98;4.75;;;;;;;13.64;100.00;99598.34;4983861;28;20062;-79
2023/06/20 05:31:55;;;;;;;10.10;4.32;;;;;;;13.73;100.00;99599.06;4954441;28;20033;-79
2023/06/20 05:34:21;;;;;;;8.88;4.93;;;;;;;13.80;100.00;99590.34;4957622;28;20038;-79
2023/06/20 05:36:47;;;;;;;9.10;3.50;;;;;;;13.86;100.00;99595.75;4953558;28;20038;-79
2023/06/20 05:39:13;;;;;;;38.05;6.35;;;;;;;13.96;100.00;99592.78;4977804;28;20043;-79
2023/06/20 05:41:41;;;;;;;55.20;6.13;;;;;;;14.06;100.00;99592.50;4970293;28;20035;-80
2023/06/20 05:44:07;;;;;;;34.78;6.05;;;;;;;14.14;100.00;99591.53;5003374;28;20081;-84
2023/06/20 05:46:33;;;;;;;87.10;6.80;;;;;;;14.20;100.00;99589.94;4971767;28;20042;-83
2023/06/20 05:49:00;;;;;;;52.67;5.43;;;;;;;14.25;100.00;99591.03;4957522;28;20038;-79
2023/06/20 05:51:29;;;;;;;24.63;5.70;;;;;;;14.32;100.00;99591.09;4963165;28;20128;-79
2023/06/20 05:53:57;;;;;;;21.45;5.22;;;;;;;14.36;100.00;99592.38;4963402;28;20051;-79
2023/06/20 05:56:23;;;;;;;16.85;5.30;;;;;;;14.41;100.00;99588.31;4970641;28;20512;-78
2023/06/20 05:58:49;;;;;;;12.65;5.53;;;;;;;14.46;100.00;99586.72;4969438;28;20473;-78
2023/06/20 06:01:16;;;;;;;28.48;4.90;;;;;;;14.52;100.00;99588.59;4955078;28;20042;-79
2023/06/20 06:03:42;;;;;;;30.40;5.13;;;;;;;14.56;100.00;99586.38;4975782;28;20046;-79
2023/06/20 06:06:11;;;;;;;15.25;5.40;;;;;;;14.62;100.00;99582.16;4973390;28;20405;-79
2023/06/20 06:08:37;;;;;;;17.05;4.78;;;;;;;14.66;100.00;99591.38;4951398;28;20028;-78
2023/06/20 06:11:02;;;;;;;30.30;5.10;;;;;;;14.59;100.00;99583.34;4940476;28;20375;-80
2023/06/20 06:13:28;;;;;;;62.85;6.15;;;;;;;14.49;100.00;99586.31;4961102;28;20043;-79
2023/06/20 06:15:54;;;;;;;141.98;9.07;;;;;;;14.38;100.00;99589.53;4940312;28;20042;-79
2023/06/20 06:18:21;;;;;;;154.55;7.45;;;;;;;14.32;100.00;99598.22;4972439;28;20053;-83
2023/06/20 06:20:47;;;;;;;157.70;9.82;;;;;;;14.25;100.00;99595.53;4952070;28;20624;-83
2023/06/20 06:23:12;;;;;;;59.72;6.15;;;;;;;14.28;100.00;99611.09;4954213;28;20039;-79
2023/06/20 06:25:38;;;;;;;111.55;7.03;;;;;;;14.33;100.00;99608.69;4955610;28;20050;-79
2023/06/20 06:28:04;;;;;;;61.25;6.25;;;;;;;14.42;100.00;99612.03;4983635;28;20042;-78
2023/06/20 06:30:33;;;;;;;37.72;6.85;;;;;;;14.49;100.00;99612.09;4954250;28;20046;-79
2023/06/20 06:32:59;;;;;;;57.75;6.47;;;;;;;14.55;100.00;99607.84;4986867;28;20094;-76
2023/06/20 06:35:25;;;;;;;17.52;6.03;;;;;;;14.60;100.00;99613.44;4968885;28;20177;-79
2023/06/20 06:37:52;;;;;;;35.03;6.88;;;;;;;14.70;100.00;99616.56;4969357;28;20031;-79
2023/06/20 06:40:20;;;;;;;9.40;6.00;;;;;;;14.80;100.00;99618.94;4980984;28;20043;-79
2023/06/20 06:42:46;;;;;;;14.70;6.45;;;;;;;14.88;100.00;99616.13;4971603;28;20504;-79
2023/06/20 06:45:12;;;;;;;37.83;7.03;;;;;;;14.97;100.00;99611.47;4963122;28;20034;-79
2023/06/20 06:47:38;;;;;;;45.47;7.30;;;;;;;15.03;100.00;99606.41;4970848;28;20037;-79
2023/06/20 06:50:04;;;;;;;41.53;7.35;;;;;;;15.08;100.00;99607.47;4971931;28;20093;-79
2023/06/20 06:52:31;;;;;;;24.67;7.13;;;;;;;15.13;100.00;99617.50;4971909;28;20515;-79
2023/06/20 06:54:57;;;;;;;13.32;7.93;;;;;;;15.14;100.00;99616.53;4974261;28;20508;-79
2023/06/20 06:57:22;;;;;;;17.20;8.02;;;;;;;15.17;100.00;99620.63;4963066;28;20034;-79
2023/06/20 06:59:48;;;;;;;11.23;7.03;;;;;;;15.17;100.00;99625.94;4958220;28;20035;-80
2023/06/20 07:02:14;;;;;;;15.73;7.53;;;;;;;15.21;100.00;99621.88;4972302;28;20512;-79
2023/06/20 07:04:40;;;;;;;8.02;5.68;;;;;;;15.30;100.00;99633.19;5002160;28;20077;-79
2023/06/20 07:07:05;;;;;;;15.90;7.10;;;;;;;15.35;100.00;99630.78;4960695;28;20046;-79
2023/06/20 07:09:31;;;;;;;10.10;6.50;;;;;;;15.38;100.00;99628.53;4964565;28;20050;-79
2023/06/20 07:11:57;;;;;;;10.05;6.63;;;;;;;15.47;100.00;99631.03;4967845;28;20495;-80
2023/06/20 07:14:23;;;;;;;11.50;6.50;;;;;;;15.52;100.00;99631.28;4984883;28;20037;-79
2023/06/20 07:16:49;;;;;;;9.82;6.50;;;;;;;15.59;100.00;99641.97;4941141;28;20038;-79
2023/06/20 07:19:14;;;;;;;8.98;5.88;;;;;;;15.70;100.00;99640.56;4968334;28;20145;-79
2023/06/20 07:21:40;;;;;;;8.07;6.50;;;;;;;15.86;100.00;99637.56;4981795;28;20042;-80
2023/06/20 07:24:06;;;;;;;8.00;6.13;;;;;;;16.01;100.00;99641.94;4954841;28;20030;-78
2023/06/20 07:26:32;;;;;;;11.13;6.15;;;;;;;16.12;100.00;99643.19;4966410;28;20034;-78
2023/06/20 07:28:58;;;;;;;11.35;5.97;;;;;;;16.15;100.00;99636.66;4990304;28;20041;-77
2023/06/20 07:31:23;;;;;;;10.90;6.40;;;;;;;16.19;100.00;99640.56;4959469;28;20034;-80
2023/06/20 07:33:49;;;;;;;7.68;5.40;;;;;;;16.21;100.00;99639.31;4973588;28;20661;-78
2023/06/20 07:36:15;;;;;;;7.63;5.05;;;;;;;16.25;100.00;99650.41;4958378;28;20030;-80
2023/06/20 07:38:41;;;;;;;6.55;4.85;;;;;;;16.27;100.00;99640.38;4972822;28;20508;-78
2023/06/20 07:41:06;;;;;;;15.05;5.82;;;;;;;16.29;100.00;99634.84;4964721;28;20042;-78
2023/06/20 07:43:32;;;;;;;10.43;5.00;;;;;;;16.34;100.00;99635.06;4957641;28;20041;-79
2023/06/20 07:45:58;;;;;;;6.28;4.45;;;;;;;16.39;100.00;99631.78;4957563;28;20038;-80
2023/06/20 07:48:26;;;;;;;8.88;4.90;;;;;;;16.45;100.00;99633.66;4968038;28;20042;-80
2023/06/20 07:50:52;;;;;;;12.02;5.90;;;;;;;16.51;100.00;99634.66;4937481;28;20034;-78
2023/06/20 07:53:18;;;;;;;7.13;4.13;;;;;;;16.55;100.00;99625.22;4969570;28;20133;-78
2023/06/20 07:55:44;;;;;;;6.80;4.85;;;;;;;16.60;100.00;99630.78;4955524;28;20038;-81
2023/06/20 07:58:09;;;;;;;5.13;3.80;;;;;;;16.63;100.00;99630.38;4966511;28;20065;-78
2023/06/20 08:00:35;;;;;;;7.43;4.47;;;;;;;16.65;100.00;99631.00;4956999;28;20038;-78
2023/06/20 08:03:01;;;;;;;8.25;4.63;;;;;;;16.68;100.00;99627.91;4975438;28;20456;-79
2023/06/20 08:05:27;;;;;;;5.90;4.72;;;;;;;16.75;100.00;99627.91;4974831;28;20033;-79
2023/06/20 08:07:53;;;;;;;14.02;4.70;;;;;;;16.82;100.00;99627.88;4972549;28;20057;-81
2023/06/20 08:10:19;;;;;;;9.80;4.00;;;;;;;16.88;100.00;99621.75;4967884;28;20504;-78
2023/06/20 08:12:44;;;;;;;9.50;4.38;;;;;;;16.93;100.00;99626.47;4971033;28;20038;-79
2023/06/20 08:15:10;;;;;;;7.93;4.68;;;;;;;16.95;100.00;99619.06;4945045;28;20038;-79
2023/06/20 08:17:36;;;;;;;6.68;4.10;;;;;;;16.96;100.00;99621.53;4987036;28;20472;-79
2023/06/20 08:20:11;;;;;;;10.07;4.22;;;;;;;16.97;100.00;99623.19;4969264;28;20388;-81
2023/06/20 08:22:37;;;;;;;11.73;4.65;;;;;;;16.99;100.00;99623.78;4970108;28;20033;-79
2023/06/20 08:25:04;;;;;;;7.60;4.22;;;;;;;17.06;100.00;99620.28;4966520;28;20042;-79
2023/06/20 08:27:31;;;;;;;7.07;4.30;;;;;;;17.13;100.00;99620.31;4952395;28;20563;-80
2023/06/20 08:29:57;;;;;;;8.60;4.20;;;;;;;17.16;100.00;99622.56;4967030;28;20042;-79
2023/06/20 08:32:23;;;;;;;8.52;4.32;;;;;;;17.19;100.00;99625.63;4954034;28;20061;-80
2023/06/20 08:34:49;;;;;;;6.35;3.90;;;;;;;17.22;100.00;99621.72;4972167;28;20054;-78
2023/06/20 08:37:21;;;;;;;7.60;4.57;;;;;;;17.30;100.00;99621.50;4954874;28;20039;-78
2023/06/20 08:39:46;;;;;;;9.82;4.75;;;;;;;17.30;100.00;99615.31;4970552;28;20026;-80
2023/06/20 08:42:12;;;;;;;7.90;4.63;;;;;;;17.31;100.00;99599.09;4954687;28;20037;-80
2023/06/20 08:44:38;;;;;;;10.55;4.30;;;;;;;17.36;100.00;99607.31;4954893;28;20030;-80
2023/06/20 08:47:04;;;;;;;9.27;4.30;;;;;;;17.44;100.00;99600.91;4981129;28;20073;-80
2023/06/20 08:49:30;;;;;;;7.45;4.30;;;;;;;17.51;100.00;99608.06;4967837;28;20030;-80
2023/06/20 08:52:03;;;;;;;6.95;3.95;;;;;;;17.58;100.00;99608.88;4945653;28;20042;-79
2023/06/20 08:54:32;;;;;;;6.68;4.22;;;;;;;17.61;100.00;99606.59;4969208;28;20091;-80
2023/06/20 08:56:59;;;;;;;7.30;3.85;;;;;;;17.65;100.00;99598.97;4978565;28;20499;-79
2023/06/20 08:59:25;;;;;;;4.85;3.70;;;;;;;17.70;100.00;99601.84;4962024;28;20035;-80
2023/06/20 09:01:51;;;;;;;7.32;4.05;;;;;;;17.75;100.00;99600.38;4963833;28;20453;-80
2023/06/20 09:04:19;;;;;;;7.07;3.50;;;;;;;17.80;100.00;99604.06;4947809;28;20066;-80
2023/06/20 09:06:50;;;;;;;5.13;3.53;;;;;;;17.82;100.00;99603.84;4967129;28;20034;-80
2023/06/20 09:09:17;;;;;;;7.28;3.75;;;;;;;17.88;100.00;99604.84;4957981;28;20130;-83
2023/06/20 09:11:52;;;;;;;6.68;3.80;;;;;;;17.92;100.00;99600.69;4959608;28;20746;-81
2023/06/20 09:14:18;;;;;;;5.82;3.42;;;;;;;17.94;100.00;99601.31;4965982;28;20082;-80
2023/06/20 09:16:47;;;;;;;8.18;3.10;;;;;;;17.99;100.00;99593.47;4938087;28;20035;-80
2023/06/20 09:19:13;;;;;;;8.07;3.33;;;;;;;17.93;100.00;99603.16;4949546;28;20043;-83
2023/06/20 09:21:39;;;;;;;4.28;2.72;;;;;;;17.94;100.00;99604.81;4964486;28;20448;-83
2023/06/20 09:24:06;;;;;;;7.45;3.40;;;;;;;17.94;100.00;99601.31;4963218;28;20092;-80
2023/06/20 09:26:33;;;;;;;6.40;2.92;;;;;;;17.92;100.00;99606.88;4965647;28;20085;-80
2023/06/20 09:29:10;;;;;;;4.70;2.75;;;;;;;17.94;100.00;99601.31;4965445;28;20031;-80
2023/06/20 09:31:41;;;;;;;4.10;3.22;;;;;;;17.94;100.00;99596.78;4943308;28;20047;-80
2023/06/20 09:34:14;;;;;;;5.90;3.60;;;;;;;17.98;100.00;99597.19;4950243;28;20034;-84
2023/06/20 09:36:41;;;;;;;5.07;3.38;;;;;;;18.04;100.00;99599.00;4964810;28;20046;-84
2023/06/20 09:39:13;;;;;;;3.67;2.13;;;;;;;18.19;100.00;99597.91;4949444;28;20122;-79
2023/06/20 09:41:49;;;;;;;5.03;3.03;;;;;;;18.22;100.00;99602.81;4956578;28;20358;-81
2023/06/20 09:44:17;;;;;;;4.35;2.60;;;;;;;18.18;100.00;99599.78;4950392;28;20441;-79
2023/06/20 09:46:43;;;;;;;8.60;3.40;;;;;;;18.22;100.00;99597.47;4957405;28;20057;-78
2023/06/20 09:49:12;;;;;;;5.75;2.95;;;;;;;18.35;100.00;99599.22;4935158;28;20041;-81
2023/06/20 09:51:48;;;;;;;3.70;2.80;;;;;;;18.40;100.00;99587.88;4965796;28;20035;-79
2023/06/20 09:54:27;;;;;;;4.45;2.70;;;;;;;18.46;100.00;99590.50;4978265;28;20118;-82
2023/06/20 09:56:59;;;;;;;5.15;2.78;;;;;;;18.45;100.00;99593.41;4963210;28;20035;-79
2023/06/20 09:59:27;;;;;;;4.78;2.20;;;;;;;18.56;100.00;99591.88;4971061;28;20026;-79
2023/06/20 10:01:54;;;;;;;4.68;1.95;;;;;;;18.66;100.00;99586.88;4933524;28;20037;-80
2023/06/20 10:04:21;;;;;;;5.60;2.17;;;;;;;18.80;100.00;99578.69;4975444;28;20047;-81
2023/06/20 10:06:47;;;;;;;8.25;2.50;;;;;;;18.99;100.00;99576.03;4970087;28;20034;-80
2023/06/20 10:09:15;;;;;;;5.28;2.13;;;;;;;19.11;100.00;99581.53;4969681;28;20518;-81
2023/06/20 10:11:41;;;;;;;3.20;1.60;;;;;;;19.23;100.00;99584.28;4973434;28;20042;-80
2023/06/20 10:14:08;;;;;;;4.13;2.13;;;;;;;19.33;100.00;99581.91;4971631;28;20031;-80
2023/06/20 10:16:34;;;;;;;7.13;2.40;;;;;;;19.42;100.00;99572.50;4969750;28;20033;-79
2023/06/20 10:19:17;;;;;;;8.25;2.25;;;;;;;19.61;100.00;99568.97;4949871;28;20035;-80
2023/06/20 10:21:59;;;;;;;3.75;2.13;;;;;;;19.69;100.00;99566.00;4952626;28;20034;-79
2023/06/20 10:24:30;;;;;;;4.55;2.10;;;;;;;19.82;100.00;99571.19;4953008;28;20134;-82
2023/06/20 10:27:00;;;;;;;6.32;2.15;;;;;;;19.94;100.00;99565.84;4968885;28;20034;-79
2023/06/20 10:29:27;;;;;;;4.53;2.05;;;;;;;20.07;100.00;99572.09;4955302;28;20031;-81
2023/06/20 10:32:13;;;;;;;5.93;2.22;;;;;;;20.08;100.00;99566.50;4944985;28;20492;-80
2023/06/20 10:34:39;;;;;;;6.53;2.45;;;;;;;20.04;100.00;99569.88;4946724;28;20136;-82
2023/06/20 10:37:10;;;;;;;6.93;2.13;;;;;;;20.02;100.00;99572.78;4969420;28;20046;-82
2023/06/20 10:39:35;;;;;;;4.70;1.73;;;;;;;19.88;100.00;99569.44;4968234;28;21603;-82
2023/06/20 10:42:08;;;;;;;3.58;1.50;;;;;;;19.80;100.00;99562.53;4966646;28;20034;-80
2023/06/20 10:44:33;;;;;;;4.82;2.15;;;;;;;19.73;100.00;99561.81;4956518;28;20441;-80
2023/06/20 10:46:59;;;;;;;5.25;2.08;;;;;;;19.64;100.00;99553.25;4956856;28;20062;-80
2023/06/20 10:49:25;;;;;;;4.65;2.22;;;;;;;19.54;100.00;99553.78;4973697;28;20042;-81
2023/06/20 10:51:53;;;;;;;14.18;2.63;;;;;;;19.49;100.00;99548.31;4915814;28;20041;-81
2023/06/20 10:54:20;;;;;;;7.30;2.95;;;;;;;19.41;100.00;99554.81;4972188;28;20505;-81
2023/06/20 10:56:47;;;;;;;6.05;2.30;;;;;;;19.27;100.00;99554.13;4962816;28;20117;-80
2023/06/20 10:59:15;;;;;;;6.03;2.33;;;;;;;19.17;100.00;99564.56;4967903;28;20034;-81
2023/06/20 11:01:41;;;;;;;2.92;1.73;;;;;;;19.07;100.00;99560.50;4956605;28;20037;-82
2023/06/20 11:04:08;;;;;;;4.55;2.63;;;;;;;19.05;100.00;99554.56;4974791;28;20107;-82
2023/06/20 11:06:35;;;;;;;8.45;2.50;;;;;;;19.04;100.00;99552.09;4975204;28;20113;-80
2023/06/20 11:09:01;;;;;;;6.25;2.47;;;;;;;19.11;100.00;99555.56;4933980;28;20589;-82
2023/06/20 11:11:34;;;;;;;4.88;2.20;;;;;;;19.31;100.00;99544.63;4962795;28;20042;-81
2023/06/20 11:14:11;;;;;;;9.25;2.40;;;;;;;19.44;100.00;99535.59;4951816;28;20061;-82
2023/06/20 11:16:38;;;;;;;3.47;1.40;;;;;;;19.54;100.00;99536.91;4958203;28;20030;-82
2023/06/20 11:19:04;;;;;;;5.95;2.15;;;;;;;19.64;100.00;99537.19;4954294;28;20400;-81
2023/06/20 11:21:30;;;;;;;2.42;1.70;;;;;;;19.79;100.00;99539.47;4943023;28;20038;-81
2023/06/20 11:24:04;;;;;;;8.68;2.55;;;;;;;19.97;100.00;99535.09;4957006;28;20038;-81
2023/06/20 11:26:33;;;;;;;6.65;2.75;;;;;;;20.06;100.00;99540.97;4962180;28;20030;-80